Time;durP1;ratioP1;P1;durP2;ratioP2;P2;SDS_P1;SDS_P2;PMS_P1;PMS_P2;Temp;Humidity;BMP_temperature;BMP_pressure;BME280_temperature;BME280_humidity;BME280_pressure;Samples;Min_cycle;Max_cycle;Signal;HPM_P1;HPM_P2
2024/02/10 00:00:20;;;;;;;16.52;12.05;;;9.70;99.90;;;;;;5067714;28;20434;-68
2024/02/10 00:03:07;;;;;;;20.33;12.23;;;9.70;99.90;;;;;;5065048;28;20491;-62
2024/02/10 00:05:53;;;;;;;21.67;14.23;;;9.70;99.90;;;;;;5071180;28;20473;-62
2024/02/10 00:08:39;;;;;;;18.38;13.27;;;9.70;99.90;;;;;;5052787;28;20120;-63
2024/02/10 00:11:25;;;;;;;20.75;13.43;;;9.70;99.90;;;;;;5066500;28;20107;-62
2024/02/10 00:14:11;;;;;;;16.77;12.25;;;9.70;99.90;;;;;;5069440;28;20043;-63
2024/02/10 00:16:57;;;;;;;20.92;12.95;;;9.70;99.90;;;;;;5074287;28;20056;-62
2024/02/10 00:19:49;;;;;;;17.65;12.43;;;9.70;99.90;;;;;;5058526;28;20037;-62
2024/02/10 00:22:36;;;;;;;18.08;12.05;;;9.70;99.90;;;;;;5071336;28;20024;-62
2024/02/10 00:25:23;;;;;;;17.60;12.38;;;9.80;99.90;;;;;;5074469;28;20068;-62
2024/02/10 00:28:11;;;;;;;16.38;12.45;;;9.80;99.90;;;;;;5072133;28;20032;-62
2024/02/10 00:30:59;;;;;;;14.15;11.02;;;9.80;99.90;;;;;;5065352;28;20078;-62
2024/02/10 00:33:46;;;;;;;16.15;12.25;;;9.80;99.90;;;;;;5071658;28;20025;-62
2024/02/10 00:36:32;;;;;;;17.65;12.15;;;9.80;99.90;;;;;;5072574;28;20043;-62
2024/02/10 00:39:18;;;;;;;16.50;12.98;;;9.80;99.90;;;;;;5081485;28;20036;-62
2024/02/10 00:42:04;;;;;;;16.90;10.80;;;9.80;99.90;;;;;;5064712;28;20033;-62
2024/02/10 00:44:51;;;;;;;14.93;10.55;;;9.80;99.90;;;;;;5066409;28;20048;-61
2024/02/10 00:47:37;;;;;;;14.52;10.63;;;9.80;99.90;;;;;;5068892;28;20041;-61
2024/02/10 00:50:23;;;;;;;16.00;11.07;;;9.80;99.90;;;;;;5063992;28;20068;-60
2024/02/10 00:53:09;;;;;;;14.80;11.57;;;9.90;99.90;;;;;;5071046;28;20031;-61
2024/02/10 00:55:55;;;;;;;17.08;12.30;;;9.90;99.90;;;;;;5061520;28;20421;-61
2024/02/10 00:58:41;;;;;;;19.63;14.50;;;9.90;99.90;;;;;;5075591;28;20032;-61
2024/02/10 01:01:28;;;;;;;19.98;15.48;;;9.90;99.90;;;;;;5074168;28;20028;-61
2024/02/10 01:04:14;;;;;;;20.77;15.45;;;9.90;99.90;;;;;;5070712;28;20051;-61
2024/02/10 01:07:01;;;;;;;23.60;17.27;;;9.90;99.90;;;;;;5067233;28;20404;-61
2024/02/10 01:09:47;;;;;;;26.08;18.95;;;9.90;99.90;;;;;;5068878;28;20021;-61
2024/02/10 01:12:33;;;;;;;24.75;18.85;;;9.90;99.90;;;;;;5060243;28;20048;-61
2024/02/10 01:15:21;;;;;;;24.25;19.27;;;9.90;99.90;;;;;;5062709;28;20114;-61
2024/02/10 01:18:09;;;;;;;29.27;21.65;;;9.90;99.90;;;;;;5061701;28;20132;-61
2024/02/10 01:20:57;;;;;;;28.70;21.35;;;9.90;99.90;;;;;;5060881;28;20107;-61
2024/02/10 01:23:46;;;;;;;32.38;20.10;;;9.90;99.90;;;;;;5065126;28;20071;-61
2024/02/10 01:26:35;;;;;;;29.60;21.08;;;9.90;99.90;;;;;;5069159;28;20071;-61
2024/02/10 01:29:21;;;;;;;28.60;20.52;;;9.90;99.90;;;;;;5070442;28;20032;-61
2024/02/10 01:32:09;;;;;;;27.95;19.40;;;9.90;99.90;;;;;;5054208;28;20078;-61
2024/02/10 01:34:55;;;;;;;26.23;17.67;;;9.90;99.90;;;;;;5056117;28;20073;-61
2024/02/10 01:37:41;;;;;;;24.48;17.83;;;9.90;99.90;;;;;;5069333;28;20078;-62
2024/02/10 01:40:27;;;;;;;22.60;15.85;;;9.90;99.90;;;;;;5073727;28;20024;-61
2024/02/10 01:43:12;;;;;;;19.52;14.35;;;9.90;99.90;;;;;;5065316;28;20077;-61
2024/02/10 01:45:58;;;;;;;18.90;14.63;;;9.90;99.90;;;;;;5069884;28;20132;-62
2024/02/10 01:48:45;;;;;;;18.30;13.57;;;9.90;99.90;;;;;;5058388;28;20497;-62
2024/02/10 01:51:31;;;;;;;16.98;12.55;;;9.90;99.90;;;;;;5074931;28;20028;-61
2024/02/10 01:54:17;;;;;;;16.70;11.60;;;10.00;99.90;;;;;;5069803;28;20067;-61
2024/02/10 01:57:06;;;;;;;17.90;11.98;;;9.90;99.90;;;;;;5065122;28;20035;-61
2024/02/10 01:59:52;;;;;;;17.75;11.88;;;10.00;99.90;;;;;;5066469;28;20029;-62
2024/02/10 02:02:39;;;;;;;15.77;11.27;;;10.00;99.90;;;;;;5072735;28;20036;-61
2024/02/10 02:05:26;;;;;;;14.07;11.00;;;9.90;99.90;;;;;;5060468;28;20102;-61
2024/02/10 02:08:13;;;;;;;15.35;10.38;;;10.00;99.90;;;;;;5068141;28;20036;-65
2024/02/10 02:10:59;;;;;;;14.05;10.25;;;10.00;99.90;;;;;;5066581;28;20060;-63
2024/02/10 02:13:49;;;;;;;16.25;10.88;;;10.00;99.90;;;;;;5059449;28;20438;-63
2024/02/10 02:16:36;;;;;;;13.48;9.43;;;10.00;99.90;;;;;;5064548;28;20048;-63
2024/02/10 02:19:22;;;;;;;12.80;9.27;;;10.00;99.90;;;;;;5060246;28;20068;-63
2024/02/10 02:22:09;;;;;;;13.20;9.40;;;10.00;99.90;;;;;;5066770;28;20017;-63
2024/02/10 02:24:55;;;;;;;15.80;10.20;;;10.00;99.90;;;;;;5069372;28;20116;-63
2024/02/10 02:27:41;;;;;;;17.48;10.48;;;10.00;99.90;;;;;;5069208;28;20051;-66
2024/02/10 02:30:27;;;;;;;15.57;10.80;;;10.00;99.90;;;;;;5057771;28;20028;-66
2024/02/10 02:33:13;;;;;;;14.98;10.27;;;10.00;99.90;;;;;;5068231;28;20111;-65
2024/02/10 02:35:59;;;;;;;12.93;9.82;;;10.00;99.90;;;;;;5070336;28;20040;-65
2024/02/10 02:38:45;;;;;;;12.77;9.90;;;10.00;99.90;;;;;;5068423;28;20079;-66
2024/02/10 02:41:32;;;;;;;14.85;9.98;;;10.00;99.90;;;;;;5066496;28;20040;-65
2024/02/10 02:44:17;;;;;;;12.48;9.48;;;10.00;99.90;;;;;;5059949;28;20033;-65
2024/02/10 02:47:04;;;;;;;14.20;10.20;;;10.00;99.90;;;;;;5068438;28;20310;-65
2024/02/10 02:49:50;;;;;;;15.57;10.43;;;10.10;99.90;;;;;;5054312;28;20024;-65
2024/02/10 02:52:37;;;;;;;14.23;10.38;;;10.10;99.90;;;;;;5061493;28;20090;-65
2024/02/10 02:55:24;;;;;;;13.50;10.57;;;10.00;99.90;;;;;;5064190;28;20029;-65
2024/02/10 02:58:10;;;;;;;15.20;10.05;;;10.10;99.90;;;;;;5058999;28;20100;-65
2024/02/10 03:00:56;;;;;;;13.43;9.90;;;10.10;99.90;;;;;;5073753;28;20067;-65
2024/02/10 03:03:45;;;;;;;20.20;9.70;;;10.10;99.90;;;;;;5067348;28;20029;-65
2024/02/10 03:06:31;;;;;;;14.23;9.13;;;10.10;99.90;;;;;;5065384;28;20051;-65
2024/02/10 03:09:17;;;;;;;14.02;9.30;;;10.10;99.90;;;;;;5067085;28;20469;-64
2024/02/10 03:12:03;;;;;;;10.10;9.02;;;10.10;99.90;;;;;;5068888;28;20029;-64
2024/02/10 03:14:49;;;;;;;13.57;9.30;;;10.20;99.90;;;;;;5065828;28;20151;-64
2024/02/10 03:17:36;;;;;;;15.25;9.70;;;10.20;99.90;;;;;;5058122;28;20061;-64
2024/02/10 03:20:23;;;;;;;12.57;9.45;;;10.20;99.90;;;;;;5053045;28;20057;-64
2024/02/10 03:23:13;;;;;;;12.45;8.55;;;10.20;99.90;;;;;;5068297;28;20032;-64
2024/02/10 03:26:03;;;;;;;11.55;8.68;;;10.20;99.90;;;;;;5069156;28;20036;-64
2024/02/10 03:28:49;;;;;;;10.93;7.85;;;10.20;99.90;;;;;;5066482;28;20492;-64
2024/02/10 03:31:34;;;;;;;13.55;7.78;;;10.30;99.90;;;;;;5068649;28;20032;-64
2024/02/10 03:34:21;;;;;;;11.95;8.60;;;10.20;99.90;;;;;;5059597;28;20029;-64
2024/02/10 03:37:07;;;;;;;11.20;8.18;;;10.30;99.90;;;;;;5056762;28;20034;-64
2024/02/10 03:39:52;;;;;;;11.07;8.30;;;10.30;99.90;;;;;;5068177;28;20081;-64
2024/02/10 03:42:41;;;;;;;10.82;8.20;;;10.30;99.90;;;;;;5067095;28;20043;-64
2024/02/10 03:45:30;;;;;;;10.75;8.27;;;10.30;99.90;;;;;;5060698;28;20078;-64
2024/02/10 03:48:16;;;;;;;14.48;9.07;;;10.30;99.90;;;;;;5058598;28;20032;-64
2024/02/10 03:51:02;;;;;;;15.48;9.75;;;10.30;99.90;;;;;;5071962;28;20071;-64
2024/02/10 03:53:50;;;;;;;11.55;7.93;;;10.30;99.90;;;;;;5072121;28;20044;-64
2024/02/10 03:56:40;;;;;;;10.52;8.10;;;10.30;99.90;;;;;;5072445;28;20509;-65
2024/02/10 03:59:26;;;;;;;10.18;8.35;;;10.30;99.90;;;;;;5071066;28;20067;-63
2024/02/10 04:02:18;;;;;;;12.93;8.43;;;10.40;99.90;;;;;;5067265;28;20059;-65
2024/02/10 04:05:05;;;;;;;10.73;7.15;;;10.40;99.90;;;;;;5039561;28;20029;-65
2024/02/10 04:07:52;;;;;;;10.18;7.43;;;10.40;99.90;;;;;;5071326;28;20056;-66
2024/02/10 04:10:38;;;;;;;11.80;8.25;;;10.40;99.90;;;;;;5070606;28;20494;-66
2024/02/10 04:13:24;;;;;;;12.02;8.00;;;10.40;99.90;;;;;;5066564;28;20481;-66
2024/02/10 04:16:12;;;;;;;14.80;8.40;;;10.50;99.90;;;;;;5069785;28;20052;-65
2024/02/10 04:18:59;;;;;;;13.45;8.25;;;10.50;99.90;;;;;;5060082;28;20476;-64
2024/02/10 04:21:50;;;;;;;9.95;7.32;;;10.50;99.90;;;;;;5064953;28;20493;-64
2024/02/10 04:24:36;;;;;;;10.15;7.72;;;10.50;99.90;;;;;;5059092;28;20070;-64
2024/02/10 04:27:22;;;;;;;10.95;7.18;;;10.50;99.90;;;;;;5072146;28;20036;-64
2024/02/10 04:30:10;;;;;;;11.75;6.68;;;10.50;99.90;;;;;;5069879;28;20027;-65
2024/02/10 04:32:56;;;;;;;13.15;8.68;;;10.50;99.90;;;;;;5068312;28;20043;-64
2024/02/10 04:35:42;;;;;;;9.40;7.40;;;10.60;99.90;;;;;;5081709;28;20480;-65
2024/02/10 04:38:28;;;;;;;10.07;7.82;;;10.60;99.90;;;;;;5070799;28;20028;-66
2024/02/10 04:41:14;;;;;;;11.32;7.40;;;10.60;99.90;;;;;;5058404;28;20036;-65
2024/02/10 04:44:00;;;;;;;11.88;8.40;;;10.60;99.90;;;;;;5064391;28;20492;-65
2024/02/10 04:46:46;;;;;;;12.70;7.63;;;10.70;99.90;;;;;;5071370;28;20056;-65
2024/02/10 04:49:36;;;;;;;10.18;8.10;;;10.70;99.90;;;;;;5058933;28;20052;-65
2024/02/10 04:52:22;;;;;;;10.77;7.45;;;10.70;99.90;;;;;;5067731;28;20044;-65
2024/02/10 04:55:08;;;;;;;8.43;6.93;;;10.70;99.90;;;;;;5063812;28;20453;-65
2024/02/10 04:57:55;;;;;;;8.93;7.50;;;10.70;99.90;;;;;;5064928;28;20032;-65
2024/02/10 05:00:41;;;;;;;12.00;7.60;;;10.70;99.90;;;;;;5055754;28;20222;-65
2024/02/10 05:03:27;;;;;;;10.48;7.45;;;10.70;99.90;;;;;;5068896;28;20044;-65
2024/02/10 05:06:14;;;;;;;12.00;8.95;;;10.80;99.90;;;;;;5067156;28;20094;-65
2024/02/10 05:09:00;;;;;;;9.00;6.90;;;10.80;99.90;;;;;;5059616;28;20560;-65
2024/02/10 05:11:46;;;;;;;10.73;7.43;;;10.80;99.90;;;;;;5068673;28;20124;-65
2024/02/10 05:14:32;;;;;;;10.77;7.88;;;10.80;99.90;;;;;;5064786;28;20542;-65
2024/02/10 05:17:19;;;;;;;9.02;7.13;;;10.80;99.90;;;;;;5062870;28;20060;-65
2024/02/10 05:20:13;;;;;;;10.38;7.72;;;10.80;99.90;;;;;;5057588;28;20048;-65
2024/02/10 05:23:01;;;;;;;9.48;7.30;;;10.80;99.90;;;;;;5064540;28;20032;-64
2024/02/10 05:25:47;;;;;;;8.52;6.05;;;10.80;99.90;;;;;;5070767;28;20040;-64
2024/02/10 05:28:33;;;;;;;9.20;6.22;;;10.90;99.90;;;;;;5069934;28;20043;-64
2024/02/10 05:31:18;;;;;;;9.00;7.55;;;10.90;99.90;;;;;;5063207;28;20488;-64
2024/02/10 05:34:05;;;;;;;6.35;5.65;;;10.90;99.90;;;;;;5071950;28;20392;-65
2024/02/10 05:36:53;;;;;;;11.43;7.05;;;10.90;99.90;;;;;;5047625;28;20474;-65
2024/02/10 05:39:40;;;;;;;11.05;7.43;;;10.90;99.90;;;;;;5058943;28;20412;-65
2024/02/10 05:42:26;;;;;;;8.10;6.20;;;11.00;99.90;;;;;;5069970;28;20032;-65
2024/02/10 05:45:17;;;;;;;8.93;6.45;;;11.00;99.90;;;;;;5068634;28;20044;-66
2024/02/10 05:48:03;;;;;;;8.70;6.78;;;11.00;99.90;;;;;;5069966;28;20041;-66
2024/02/10 05:50:50;;;;;;;8.82;6.75;;;11.00;99.90;;;;;;5059566;28;20196;-67
2024/02/10 05:53:37;;;;;;;9.55;6.82;;;11.00;99.90;;;;;;5068654;28;20037;-67
2024/02/10 05:56:23;;;;;;;10.07;7.20;;;11.00;99.90;;;;;;5066421;28;20370;-66
2024/02/10 05:59:09;;;;;;;10.13;6.47;;;11.00;99.90;;;;;;5053390;28;20489;-67
2024/02/10 06:01:54;;;;;;;8.40;6.65;;;11.00;99.90;;;;;;5069769;28;20496;-67
2024/02/10 06:04:41;;;;;;;10.60;6.45;;;11.00;99.90;;;;;;5050301;28;20036;-66
2024/02/10 06:07:27;;;;;;;8.18;6.03;;;11.00;99.90;;;;;;5069560;28;20059;-67
2024/02/10 06:10:14;;;;;;;7.68;6.03;;;11.00;99.90;;;;;;5069363;28;20040;-67
2024/02/10 06:13:00;;;;;;;9.65;6.80;;;11.00;99.90;;;;;;5068007;28;20043;-67
2024/02/10 06:15:46;;;;;;;8.25;6.65;;;11.00;99.90;;;;;;5067408;28;20044;-67
2024/02/10 06:18:33;;;;;;;8.02;5.28;;;11.00;99.90;;;;;;5061093;28;20032;-67
2024/02/10 06:21:19;;;;;;;6.80;5.55;;;11.00;99.90;;;;;;5066702;28;20032;-67
2024/02/10 06:24:05;;;;;;;6.32;5.28;;;11.10;99.90;;;;;;5068357;28;20107;-67
2024/02/10 06:26:51;;;;;;;9.10;5.47;;;11.10;99.90;;;;;;5061865;28;20121;-67
2024/02/10 06:29:37;;;;;;;7.53;4.97;;;11.10;99.90;;;;;;5069448;28;20381;-67
2024/02/10 06:32:22;;;;;;;6.38;4.93;;;11.10;99.90;;;;;;5067194;28;20098;-67
2024/02/10 06:35:09;;;;;;;8.98;5.93;;;11.20;99.90;;;;;;5060205;28;20021;-67
2024/02/10 06:37:55;;;;;;;8.43;5.80;;;11.20;99.90;;;;;;5064893;28;20042;-67
2024/02/10 06:40:41;;;;;;;8.00;5.75;;;11.20;99.90;;;;;;5075508;28;20507;-67
2024/02/10 06:43:27;;;;;;;6.20;5.32;;;11.20;99.90;;;;;;5061980;28;20036;-67
2024/02/10 06:46:16;;;;;;;7.57;5.22;;;11.20;99.90;;;;;;5068834;28;20051;-67
2024/02/10 06:49:02;;;;;;;7.82;5.65;;;11.30;99.90;;;;;;5067751;28;20032;-66
2024/02/10 06:51:48;;;;;;;6.28;5.07;;;11.30;99.90;;;;;;5040578;28;20035;-66
2024/02/10 06:54:37;;;;;;;7.53;5.50;;;11.30;99.90;;;;;;5053129;28;20044;-66
2024/02/10 06:57:23;;;;;;;7.43;5.57;;;11.30;99.90;;;;;;5067011;28;20040;-66
2024/02/10 07:00:14;;;;;;;8.32;5.68;;;11.30;99.90;;;;;;5068654;28;20064;-66
2024/02/10 07:03:00;;;;;;;6.63;5.45;;;11.30;99.90;;;;;;5058945;28;20127;-66
2024/02/10 07:05:49;;;;;;;8.93;5.70;;;11.30;99.90;;;;;;5062762;28;20107;-66
2024/02/10 07:08:35;;;;;;;6.72;4.90;;;11.30;99.90;;;;;;5066630;28;20040;-66
2024/02/10 07:11:21;;;;;;;6.90;5.53;;;11.30;99.90;;;;;;5069336;28;20120;-67
2024/02/10 07:14:08;;;;;;;6.32;5.43;;;11.40;99.90;;;;;;5049246;28;20027;-67
2024/02/10 07:16:55;;;;;;;7.13;5.80;;;11.40;99.90;;;;;;5058543;28;20178;-67
2024/02/10 07:19:49;;;;;;;7.28;5.95;;;11.40;99.90;;;;;;5053221;28;20049;-67
2024/02/10 07:22:35;;;;;;;9.25;6.32;;;11.40;99.90;;;;;;5065994;28;20036;-67
2024/02/10 07:25:22;;;;;;;10.70;6.75;;;11.40;99.90;;;;;;5073362;28;20378;-67
2024/02/10 07:28:11;;;;;;;8.90;7.13;;;11.40;99.90;;;;;;5066262;28;20070;-67
2024/02/10 07:30:57;;;;;;;8.25;6.78;;;11.40;99.90;;;;;;5060111;28;20028;-67
2024/02/10 07:33:47;;;;;;;7.75;6.95;;;11.50;99.90;;;;;;5064954;28;20488;-66
2024/02/10 07:36:34;;;;;;;9.48;7.35;;;11.50;99.90;;;;;;5062390;28;20059;-65
2024/02/10 07:39:24;;;;;;;7.85;5.97;;;11.50;99.90;;;;;;5048745;28;20770;-65
2024/02/10 07:42:10;;;;;;;7.90;5.80;;;11.50;99.90;;;;;;5069760;28;20047;-65
2024/02/10 07:44:56;;;;;;;11.57;7.10;;;11.50;99.90;;;;;;5069254;28;20039;-65
2024/02/10 07:47:44;;;;;;;6.57;5.55;;;11.50;99.90;;;;;;5058334;28;20044;-65
2024/02/10 07:50:30;;;;;;;6.97;5.68;;;11.50;99.90;;;;;;5066676;28;20474;-65
2024/02/10 07:53:16;;;;;;;9.15;6.70;;;11.50;99.90;;;;;;5069638;28;20464;-65
2024/02/10 07:56:02;;;;;;;7.40;5.75;;;11.60;99.90;;;;;;5065286;28;20527;-65
2024/02/10 07:58:48;;;;;;;8.15;6.47;;;11.60;99.90;;;;;;5068930;28;20032;-65
2024/02/10 08:01:34;;;;;;;8.85;6.38;;;11.60;99.90;;;;;;5072230;28;20468;-66
2024/02/10 08:04:21;;;;;;;8.77;6.32;;;11.60;99.90;;;;;;5071823;28;20063;-66
2024/02/10 08:07:07;;;;;;;7.55;5.90;;;11.70;99.90;;;;;;5072133;28;20052;-66
2024/02/10 08:09:53;;;;;;;9.77;6.80;;;11.70;99.90;;;;;;5063090;28;20481;-66
2024/02/10 08:12:40;;;;;;;9.48;6.68;;;11.70;99.90;;;;;;5068783;28;20430;-66
2024/02/10 08:15:30;;;;;;;9.63;6.55;;;11.80;99.90;;;;;;5069208;28;20025;-66
2024/02/10 08:18:18;;;;;;;9.43;7.20;;;11.80;99.90;;;;;;5068288;28;20040;-66
2024/02/10 08:21:07;;;;;;;8.90;6.53;;;11.80;99.90;;;;;;5067485;28;20464;-65
2024/02/10 08:23:57;;;;;;;15.27;8.70;;;11.80;99.90;;;;;;5062209;28;20427;-66
2024/02/10 08:26:43;;;;;;;11.30;7.85;;;11.90;99.90;;;;;;5072174;28;20044;-66
2024/02/10 08:29:33;;;;;;;9.50;7.60;;;12.00;99.90;;;;;;5061944;28;20543;-69
2024/02/10 08:32:20;;;;;;;10.35;7.65;;;12.00;99.90;;;;;;5066082;28;20036;-69
2024/02/10 08:35:06;;;;;;;11.27;7.93;;;12.00;99.90;;;;;;5072224;28;20404;-69
2024/02/10 08:37:52;;;;;;;9.55;7.80;;;12.10;99.90;;;;;;5043480;28;20036;-68
2024/02/10 08:40:38;;;;;;;11.23;7.90;;;12.10;99.90;;;;;;5074199;28;20107;-67
2024/02/10 08:43:24;;;;;;;10.73;7.88;;;12.10;99.90;;;;;;5069092;28;20039;-67
2024/02/10 08:46:11;;;;;;;9.45;8.15;;;12.20;99.90;;;;;;5058076;28;20029;-67
2024/02/10 08:48:57;;;;;;;10.48;7.65;;;12.20;99.90;;;;;;5069710;28;20451;-68
2024/02/10 08:51:49;;;;;;;10.10;7.72;;;12.30;99.90;;;;;;5069589;28;20027;-68
2024/02/10 08:54:35;;;;;;;10.85;7.57;;;12.30;99.90;;;;;;5069810;28;20562;-68
2024/02/10 08:57:25;;;;;;;9.80;7.20;;;12.30;99.90;;;;;;5071523;28;20404;-68
2024/02/10 09:00:11;;;;;;;10.00;7.65;;;12.40;99.90;;;;;;5070763;28;20543;-67
2024/02/10 09:02:57;;;;;;;9.90;7.50;;;12.40;99.90;;;;;;5069306;28;20440;-67
2024/02/10 09:05:43;;;;;;;9.80;7.50;;;12.50;99.90;;;;;;5069988;28;20025;-67
2024/02/10 09:08:31;;;;;;;10.75;7.80;;;12.50;99.90;;;;;;5050111;28;20474;-66
2024/02/10 09:11:18;;;;;;;11.95;7.10;;;12.50;99.90;;;;;;5066641;28;20035;-66
2024/02/10 09:14:04;;;;;;;10.93;7.43;;;12.60;99.90;;;;;;5063397;28;20066;-66
2024/02/10 09:16:50;;;;;;;10.40;7.45;;;12.60;99.90;;;;;;5071089;28;20052;-66
2024/02/10 09:19:36;;;;;;;7.70;6.43;;;12.60;99.90;;;;;;5065784;28;20027;-66
2024/02/10 09:22:22;;;;;;;9.60;7.32;;;12.70;99.90;;;;;;5062025;28;20516;-66
2024/02/10 09:25:08;;;;;;;10.57;6.60;;;12.70;99.90;;;;;;5069240;28;20033;-66
2024/02/10 09:27:59;;;;;;;8.45;6.88;;;12.70;99.90;;;;;;5065031;28;20056;-66
2024/02/10 09:30:45;;;;;;;9.48;7.03;;;12.70;99.90;;;;;;5071129;28;20465;-66
2024/02/10 09:33:31;;;;;;;10.02;7.00;;;12.70;99.90;;;;;;5058324;28;20327;-68
2024/02/10 09:36:17;;;;;;;9.82;7.07;;;12.70;99.90;;;;;;5071536;28;20478;-66
2024/02/10 09:39:04;;;;;;;8.82;6.72;;;12.70;99.90;;;;;;5071223;28;20032;-66
2024/02/10 09:41:52;;;;;;;8.50;6.10;;;12.80;99.90;;;;;;5067777;28;20500;-67
2024/02/10 09:44:39;;;;;;;10.45;6.97;;;12.80;99.90;;;;;;5067375;28;20032;-66
2024/02/10 09:47:25;;;;;;;8.93;6.50;;;12.90;99.90;;;;;;5066680;28;20054;-67
2024/02/10 09:50:15;;;;;;;12.48;6.88;;;12.90;99.90;;;;;;5069966;28;20032;-65
2024/02/10 09:53:02;;;;;;;9.93;7.20;;;13.00;99.90;;;;;;5065006;28;20502;-66
2024/02/10 09:55:56;;;;;;;8.32;6.47;;;13.10;99.90;;;;;;5066997;28;20043;-67
2024/02/10 09:58:44;;;;;;;9.88;7.03;;;13.10;99.90;;;;;;5070529;28;20036;-67
2024/02/10 10:01:37;;;;;;;8.52;6.38;;;13.10;99.90;;;;;;5058760;28;20499;-67
2024/02/10 10:04:23;;;;;;;9.75;6.28;;;13.20;99.90;;;;;;5069417;28;20033;-66
2024/02/10 10:07:09;;;;;;;10.68;6.63;;;13.20;99.90;;;;;;5069647;28;20040;-66
2024/02/10 10:09:55;;;;;;;8.02;5.88;;;13.30;99.90;;;;;;5066939;28;20370;-66
2024/02/10 10:12:41;;;;;;;8.18;6.25;;;13.30;99.90;;;;;;5063418;28;20508;-66
2024/02/10 10:15:29;;;;;;;8.30;5.55;;;13.40;99.90;;;;;;5069470;28;20043;-66
2024/02/10 10:18:16;;;;;;;7.88;5.50;;;13.40;99.90;;;;;;5069360;28;20033;-66
2024/02/10 10:21:06;;;;;;;12.73;6.05;;;13.40;99.90;;;;;;5065442;28;20101;-66
2024/02/10 10:23:54;;;;;;;12.70;6.15;;;13.40;99.90;;;;;;5068175;28;20442;-66
2024/02/10 10:26:41;;;;;;;9.13;5.55;;;13.40;99.90;;;;;;5068517;28;20045;-66
2024/02/10 10:29:30;;;;;;;10.98;6.15;;;13.40;99.90;;;;;;5053592;28;20060;-67
2024/02/10 10:32:18;;;;;;;6.57;4.88;;;13.50;99.90;;;;;;5073056;28;21199;-66
2024/02/10 10:35:05;;;;;;;8.02;6.35;;;13.50;99.90;;;;;;5059440;28;20416;-67
2024/02/10 10:37:54;;;;;;;8.32;5.32;;;13.50;99.90;;;;;;5060413;28;20039;-65
2024/02/10 10:40:41;;;;;;;8.55;5.28;;;13.60;99.90;;;;;;5080095;28;20044;-68
2024/02/10 10:43:28;;;;;;;9.07;5.78;;;13.60;99.90;;;;;;5065280;28;20092;-66
2024/02/10 10:46:16;;;;;;;6.60;4.75;;;13.70;99.90;;;;;;5065873;28;20086;-67
2024/02/10 10:49:02;;;;;;;7.13;4.70;;;13.70;99.90;;;;;;5064873;28;20040;-67
2024/02/10 10:51:57;;;;;;;6.18;4.63;;;13.70;99.90;;;;;;5060474;28;20032;-66
2024/02/10 10:54:45;;;;;;;9.75;5.38;;;13.80;99.90;;;;;;5069384;28;20413;-66
2024/02/10 10:57:32;;;;;;;7.05;5.20;;;13.90;99.90;;;;;;5064939;28;20064;-67
2024/02/10 11:00:21;;;;;;;7.53;5.30;;;13.90;99.90;;;;;;5065444;28;20484;-67
2024/02/10 11:03:07;;;;;;;8.63;5.03;;;14.00;99.90;;;;;;5069292;28;20507;-66
2024/02/10 11:05:55;;;;;;;6.93;4.75;;;14.00;99.90;;;;;;5062203;28;20040;-68
2024/02/10 11:08:45;;;;;;;7.30;4.95;;;14.00;99.90;;;;;;5056198;28;20089;-66
2024/02/10 11:11:39;;;;;;;9.00;5.05;;;14.00;99.90;;;;;;5070444;28;20090;-66
2024/02/10 11:14:25;;;;;;;7.65;4.80;;;14.00;99.90;;;;;;5073510;28;20032;-67
2024/02/10 11:17:12;;;;;;;7.65;5.55;;;14.10;99.90;;;;;;5068269;28;20057;-67
2024/02/10 11:20:08;;;;;;;13.45;5.32;;;14.10;99.90;;;;;;5064688;28;20106;-67
2024/02/10 11:22:57;;;;;;;8.13;4.55;;;14.10;99.90;;;;;;5060128;28;20039;-67
2024/02/10 11:25:44;;;;;;;6.07;4.13;;;14.10;99.90;;;;;;5054637;28;20104;-67
2024/02/10 11:28:34;;;;;;;9.55;5.53;;;14.20;99.90;;;;;;5068282;28;20503;-67
2024/02/10 11:31:22;;;;;;;7.82;4.97;;;14.20;99.90;;;;;;5066321;28;20024;-66
2024/02/10 11:34:18;;;;;;;6.40;4.68;;;14.20;99.90;;;;;;5063775;28;20028;-67
2024/02/10 11:37:05;;;;;;;10.02;5.43;;;14.30;99.90;;;;;;5069405;28;20065;-67
2024/02/10 11:39:54;;;;;;;9.73;6.20;;;14.30;99.90;;;;;;5066214;28;20430;-66
2024/02/10 11:42:42;;;;;;;6.93;5.32;;;14.30;99.90;;;;;;5066142;28;20036;-69
2024/02/10 11:45:30;;;;;;;7.65;5.35;;;14.40;99.90;;;;;;5066389;28;20032;-67
2024/02/10 11:48:17;;;;;;;9.05;6.40;;;14.50;99.90;;;;;;5069142;28;20106;-66
2024/02/10 11:51:03;;;;;;;7.40;5.30;;;14.50;99.90;;;;;;5065700;28;20028;-67
2024/02/10 11:53:50;;;;;;;10.05;6.00;;;14.60;99.90;;;;;;5066332;28;20033;-66
2024/02/10 11:56:36;;;;;;;7.95;5.38;;;14.60;99.90;;;;;;5067514;28;20037;-66
2024/02/10 11:59:24;;;;;;;8.30;6.05;;;14.60;99.90;;;;;;5064834;28;20032;-66
2024/02/10 12:02:15;;;;;;;12.65;6.97;;;14.70;99.90;;;;;;5056463;28;20319;-67
2024/02/10 12:05:01;;;;;;;8.38;6.20;;;14.70;99.90;;;;;;5053632;28;20416;-67
2024/02/10 12:07:48;;;;;;;9.82;5.55;;;14.80;99.90;;;;;;5068405;28;20052;-67
2024/02/10 12:10:38;;;;;;;10.05;5.05;;;14.80;99.90;;;;;;5058769;28;20032;-67
2024/02/10 12:13:26;;;;;;;6.93;4.72;;;14.90;99.90;;;;;;5068975;28;20043;-65
2024/02/10 12:16:12;;;;;;;6.22;4.30;;;14.90;99.90;;;;;;5066643;28;20049;-66
2024/02/10 12:18:59;;;;;;;6.18;4.25;;;15.00;99.90;;;;;;5052186;28;20024;-67
2024/02/10 12:21:47;;;;;;;10.77;4.30;;;15.00;99.90;;;;;;5068196;28;20482;-66
2024/02/10 12:24:33;;;;;;;6.53;3.92;;;15.00;99.90;;;;;;5053821;28;20025;-67
2024/02/10 12:27:25;;;;;;;8.13;4.50;;;15.10;99.90;;;;;;5071101;28;20279;-66
2024/02/10 12:30:12;;;;;;;6.20;3.83;;;15.10;99.90;;;;;;5065219;28;20036;-68
2024/02/10 12:32:58;;;;;;;5.13;3.50;;;15.20;99.90;;;;;;5072103;28;20099;-67
2024/02/10 12:35:46;;;;;;;8.55;3.83;;;15.20;99.90;;;;;;5053865;28;20400;-67
2024/02/10 12:38:32;;;;;;;6.20;3.90;;;15.30;99.90;;;;;;5056906;28;20025;-66
2024/02/10 12:41:19;;;;;;;4.78;3.65;;;15.30;99.90;;;;;;5062604;28;20029;-66
2024/02/10 12:44:05;;;;;;;5.18;3.35;;;15.30;99.90;;;;;;5065367;28;20769;-66
2024/02/10 12:46:52;;;;;;;5.15;3.60;;;15.30;99.90;;;;;;5064056;28;20048;-67
2024/02/10 12:49:38;;;;;;;6.15;3.50;;;15.40;99.90;;;;;;5071731;28;20056;-66
2024/02/10 12:52:25;;;;;;;4.65;3.38;;;15.40;99.90;;;;;;5064546;28;20115;-66
2024/02/10 12:55:13;;;;;;;4.28;2.72;;;15.40;99.90;;;;;;5048945;28;20509;-66
2024/02/10 12:58:01;;;;;;;3.88;2.72;;;15.40;99.90;;;;;;5058842;28;20067;-66
2024/02/10 13:00:47;;;;;;;3.30;2.35;;;15.40;99.90;;;;;;5077860;23;20063;-69
2024/02/10 13:03:35;;;;;;;4.10;2.55;;;15.40;99.90;;;;;;5040464;28;20112;-69
2024/02/10 13:06:20;;;;;;;3.67;2.60;;;15.40;99.90;;;;;;5047981;28;20048;-69
2024/02/10 13:09:07;;;;;;;3.72;2.35;;;15.30;99.90;;;;;;5047310;28;20088;-69
2024/02/10 13:11:53;;;;;;;3.78;2.40;;;15.30;99.90;;;;;;5037896;28;20036;-70
2024/02/10 13:14:39;;;;;;;3.47;2.33;;;15.30;99.90;;;;;;5034634;28;20032;-69
2024/02/10 13:17:25;;;;;;;3.10;2.17;;;15.30;99.90;;;;;;5029809;28;20511;-69
2024/02/10 13:20:12;;;;;;;4.22;2.40;;;15.30;99.90;;;;;;5029980;28;20256;-69
2024/02/10 13:22:58;;;;;;;5.00;2.70;;;15.20;99.90;;;;;;5034606;28;20485;-69
2024/02/10 13:25:47;;;;;;;3.22;2.13;;;15.20;99.90;;;;;;5040527;28;20029;-69
2024/02/10 13:28:33;;;;;;;4.72;2.28;;;15.20;99.90;;;;;;5040114;28;21198;-69
2024/02/10 13:31:21;;;;;;;4.32;2.42;;;15.10;99.90;;;;;;5038692;28;20044;-69
2024/02/10 13:34:06;;;;;;;3.03;2.00;;;15.00;99.90;;;;;;5046245;28;20021;-69
2024/02/10 14:00:57;;;;;;;4.18;2.40;;;14.80;99.90;;;;;;5048002;28;20500;-69
2024/02/10 14:04:06;;;;;;;4.00;2.70;;;14.80;99.90;;;;;;5035175;28;20432;-69
2024/02/10 14:06:53;;;;;;;4.82;1.88;;;14.80;99.90;;;;;;5037993;28;20037;-69
2024/02/10 14:09:40;;;;;;;4.43;2.40;;;14.90;99.90;;;;;;5035155;28;20032;-69
2024/02/10 14:12:28;;;;;;;2.70;1.80;;;14.90;99.90;;;;;;5037509;28;20397;-69
2024/02/10 14:15:17;;;;;;;3.05;1.95;;;14.90;99.90;;;;;;5049101;28;20339;-70
2024/02/10 14:18:03;;;;;;;2.97;1.70;;;14.90;99.90;;;;;;5048947;28;20064;-70
2024/02/10 14:20:49;;;;;;;5.30;1.80;;;14.90;99.90;;;;;;5042900;28;20029;-70
2024/02/10 14:23:35;;;;;;;2.70;1.65;;;14.90;99.90;;;;;;5038793;28;20045;-70
2024/02/10 14:29:35;;;;;;;2.15;1.60;;;15.00;99.90;;;;;;5012419;28;20163;-68
2024/02/10 14:32:30;;;;;;;3.30;1.80;;;15.00;99.90;;;;;;5034955;28;20951;-68
2024/02/10 14:35:24;;;;;;;3.58;1.98;;;15.00;99.90;;;;;;5033191;28;20040;-69
2024/02/10 14:38:23;;;;;;;2.78;1.90;;;15.10;99.90;;;;;;5048939;28;20036;-68
2024/02/10 14:41:09;;;;;;;1.77;1.50;;;15.10;99.90;;;;;;5047468;28;20039;-68
2024/02/10 14:43:55;;;;;;;2.70;1.92;;;15.10;99.90;;;;;;5062569;28;20080;-69
2024/02/10 14:46:43;;;;;;;5.57;1.90;;;15.20;99.90;;;;;;5031838;28;20037;-69
2024/02/10 14:49:31;;;;;;;2.22;1.52;;;15.20;99.90;;;;;;5049448;28;20115;-69